Time;durP1;ratioP1;P1;durP2;ratioP2;P2;SDS_P1;SDS_P2;PMS_P1;PMS_P2;Temp;Humidity;BMP_temperature;BMP_pressure;BME280_temperature;BME280_humidity;BME280_pressure;Samples;Min_cycle;Max_cycle;Signal;HPM_P1;HPM_P2
2023/08/11 00:00:27;;;;;;;4.03;3.20;;;22.00;99.90;;;;;;5047737;28;20507;-23
2023/08/11 00:02:57;;;;;;;5.43;3.42;;;22.00;99.90;;;;;;5047073;28;20200;-22
2023/08/11 00:05:24;;;;;;;4.18;3.28;;;22.00;99.90;;;;;;5028800;28;20311;-22
2023/08/11 00:07:55;;;;;;;3.95;3.50;;;22.00;99.90;;;;;;5044559;28;20212;-23
2023/08/11 00:10:23;;;;;;;4.32;3.30;;;21.90;99.90;;;;;;5045548;28;20729;-22
2023/08/11 00:12:53;;;;;;;5.85;3.58;;;21.90;99.90;;;;;;5046846;28;20204;-22
2023/08/11 00:15:26;;;;;;;4.32;3.20;;;21.90;99.90;;;;;;5045941;28;20196;-23
2023/08/11 00:17:57;;;;;;;3.83;3.42;;;21.80;99.90;;;;;;5047010;28;20216;-23
2023/08/11 00:20:24;;;;;;;5.82;3.63;;;21.80;99.90;;;;;;5046789;28;20196;-23
2023/08/11 00:22:54;;;;;;;4.55;3.53;;;21.80;99.90;;;;;;5044990;28;20254;-23
2023/08/11 00:25:22;;;;;;;6.75;3.92;;;21.80;99.90;;;;;;5045049;28;20293;-23
2023/08/11 00:27:52;;;;;;;5.55;3.60;;;21.70;99.90;;;;;;5045013;28;20243;-23
2023/08/11 00:30:19;;;;;;;3.90;2.97;;;21.70;99.90;;;;;;5028766;28;20201;-23
2023/08/11 00:32:48;;;;;;;3.97;3.42;;;21.70;99.90;;;;;;5045034;28;20197;-23
2023/08/11 00:35:16;;;;;;;6.13;3.55;;;21.60;99.90;;;;;;5044776;28;20235;-23
2023/08/11 00:37:43;;;;;;;5.13;3.50;;;21.60;99.90;;;;;;5046514;28;20207;-23
2023/08/11 00:40:11;;;;;;;5.38;3.45;;;21.60;99.90;;;;;;5028852;28;20600;-23
2023/08/11 00:42:41;;;;;;;5.15;3.30;;;21.60;99.90;;;;;;5044794;28;20196;-23
2023/08/11 00:45:09;;;;;;;5.50;3.17;;;21.50;99.90;;;;;;5044561;28;20222;-23
2023/08/11 00:47:41;;;;;;;5.82;3.38;;;21.50;99.90;;;;;;5044898;28;20223;-23
2023/08/11 00:50:15;;;;;;;5.43;3.35;;;21.50;99.90;;;;;;5047006;28;20205;-23
2023/08/11 00:52:45;;;;;;;5.35;2.90;;;21.40;99.90;;;;;;5045060;28;20696;-23
2023/08/11 00:55:24;;;;;;;5.82;3.10;;;21.40;99.90;;;;;;5045156;28;20210;-23
2023/08/11 00:57:51;;;;;;;3.00;2.65;;;21.40;99.90;;;;;;5042717;28;20208;-23
2023/08/11 01:00:18;;;;;;;4.40;3.13;;;21.30;99.90;;;;;;5008010;28;20201;-22
2023/08/11 01:02:46;;;;;;;4.90;2.85;;;21.30;99.90;;;;;;5004863;28;20214;-23
2023/08/11 01:05:17;;;;;;;3.95;3.10;;;21.30;99.90;;;;;;5006143;28;20234;-22
2023/08/11 01:08:18;;;;;;;5.38;3.60;;;21.20;99.90;;;;;;5026002;28;20271;-23
2023/08/11 01:11:17;;;;;;;5.63;3.47;;;21.20;99.90;;;;;;5011361;28;20237;-23
2023/08/11 01:13:53;;;;;;;5.20;3.00;;;21.20;99.90;;;;;;5013281;28;20197;-23
2023/08/11 01:16:25;;;;;;;4.95;2.90;;;21.20;99.90;;;;;;5025222;28;20200;-23
2023/08/11 01:18:53;;;;;;;5.00;3.10;;;21.10;99.90;;;;;;5011421;28;20678;-23
2023/08/11 01:21:23;;;;;;;3.67;2.60;;;21.10;99.90;;;;;;5025927;28;20216;-23
2023/08/11 01:23:51;;;;;;;3.90;2.97;;;21.10;99.90;;;;;;5024430;28;20259;-23
2023/08/11 01:26:18;;;;;;;3.88;2.60;;;21.00;99.90;;;;;;5026058;28;20279;-23
2023/08/11 01:28:54;;;;;;;3.60;3.00;;;21.00;99.90;;;;;;5024108;28;20607;-23
2023/08/11 01:31:21;;;;;;;5.00;3.20;;;21.00;99.90;;;;;;5024987;28;20220;-23
2023/08/11 01:33:51;;;;;;;3.50;3.20;;;20.90;99.90;;;;;;5024601;28;20292;-23
2023/08/11 01:36:18;;;;;;;3.63;2.97;;;20.90;99.90;;;;;;5024201;28;20664;-23
2023/08/11 01:38:47;;;;;;;7.53;2.95;;;20.90;99.90;;;;;;5007965;28;20332;-23
2023/08/11 01:41:17;;;;;;;3.80;2.75;;;20.90;99.90;;;;;;5007883;28;20690;-22
2023/08/11 01:43:45;;;;;;;4.18;3.00;;;20.80;99.90;;;;;;5025691;28;20335;-23
2023/08/11 01:46:12;;;;;;;6.18;3.20;;;20.80;99.90;;;;;;5008088;28;20283;-23
2023/08/11 01:48:42;;;;;;;8.48;3.28;;;20.80;99.90;;;;;;5024438;28;20205;-23
2023/08/11 01:51:10;;;;;;;3.97;3.00;;;20.80;99.90;;;;;;5025718;28;20569;-22
2023/08/11 01:53:37;;;;;;;4.00;3.25;;;20.80;99.90;;;;;;5025397;28;20263;-23
2023/08/11 01:56:05;;;;;;;7.28;3.30;;;20.80;99.90;;;;;;5023902;28;20204;-23
2023/08/11 01:58:32;;;;;;;3.75;3.20;;;20.70;99.90;;;;;;5024210;28;20899;-23
2023/08/11 02:01:02;;;;;;;5.93;3.55;;;20.70;99.90;;;;;;5026103;28;20216;-23
2023/08/11 02:03:30;;;;;;;5.18;3.42;;;20.70;99.90;;;;;;5025712;28;20208;-23
2023/08/11 02:05:58;;;;;;;5.65;3.70;;;20.70;99.90;;;;;;5025580;28;20240;-23
2023/08/11 02:08:28;;;;;;;7.88;3.45;;;20.70;99.90;;;;;;5023853;28;20283;-23
2023/08/11 02:10:55;;;;;;;4.75;3.05;;;20.60;99.90;;;;;;5023809;28;20197;-23
2023/08/11 02:13:23;;;;;;;2.95;2.65;;;20.60;99.90;;;;;;5025274;28;20251;-23
2023/08/11 02:15:50;;;;;;;3.47;2.88;;;20.60;99.90;;;;;;5007699;28;20197;-23
2023/08/11 02:18:17;;;;;;;3.70;2.58;;;20.60;99.90;;;;;;5023580;28;20275;-23
2023/08/11 02:20:51;;;;;;;3.30;2.53;;;20.50;99.90;;;;;;5023477;28;20608;-23
2023/08/11 02:23:23;;;;;;;4.15;2.55;;;20.50;99.90;;;;;;5025131;28;20197;-23
2023/08/11 02:25:51;;;;;;;5.88;2.53;;;20.50;99.90;;;;;;5007526;28;20545;-23
2023/08/11 02:28:18;;;;;;;9.15;2.63;;;20.40;99.90;;;;;;5023774;28;20213;-23
2023/08/11 02:30:46;;;;;;;4.28;2.97;;;20.40;99.90;;;;;;5025350;28;20193;-22
2023/08/11 02:33:18;;;;;;;3.65;2.85;;;20.40;99.90;;;;;;5028743;28;20220;-23
2023/08/11 02:35:45;;;;;;;4.10;2.85;;;20.40;99.90;;;;;;5028784;28;20303;-23
2023/08/11 02:38:15;;;;;;;3.13;2.50;;;20.40;99.90;;;;;;5027822;28;20365;-23
2023/08/11 02:40:43;;;;;;;3.08;2.50;;;20.30;99.90;;;;;;5029114;28;20205;-23
2023/08/11 02:43:11;;;;;;;3.67;3.13;;;20.30;99.90;;;;;;5011091;28;20204;-23
2023/08/11 02:45:40;;;;;;;2.67;2.47;;;20.30;99.90;;;;;;5028939;28;20320;-23
2023/08/11 02:48:07;;;;;;;3.53;2.40;;;20.20;99.90;;;;;;5027101;28;20315;-23
2023/08/11 02:50:34;;;;;;;4.85;3.08;;;20.20;99.90;;;;;;5028456;28;20208;-23
2023/08/11 02:53:02;;;;;;;4.15;2.42;;;20.20;99.90;;;;;;5028371;28;20248;-23
2023/08/11 02:55:29;;;;;;;4.30;2.50;;;20.10;99.90;;;;;;5028357;28;20246;-23
2023/08/11 02:58:01;;;;;;;4.93;2.22;;;20.10;99.90;;;;;;5027348;28;20764;-23
2023/08/11 03:00:28;;;;;;;3.42;2.58;;;20.10;99.90;;;;;;5028242;28;20292;-23
2023/08/11 03:02:56;;;;;;;3.97;2.92;;;20.10;99.90;;;;;;5026763;28;20235;-23
2023/08/11 03:05:24;;;;;;;3.58;2.30;;;20.00;99.90;;;;;;5028459;28;20201;-23
2023/08/11 03:07:56;;;;;;;3.30;2.70;;;20.00;99.90;;;;;;5026575;28;20220;-23
2023/08/11 03:10:28;;;;;;;5.68;2.90;;;20.00;99.90;;;;;;5028412;28;20205;-23
2023/08/11 03:13:03;;;;;;;3.08;2.65;;;19.90;99.90;;;;;;5027178;28;20200;-23
2023/08/11 03:15:30;;;;;;;4.68;2.95;;;19.90;99.90;;;;;;5027102;28;20278;-23
2023/08/11 03:18:06;;;;;;;3.28;2.65;;;19.90;99.90;;;;;;5028292;28;20280;-23
2023/08/11 03:20:38;;;;;;;3.53;2.85;;;19.90;99.90;;;;;;5027991;28;20205;-23
2023/08/11 03:23:05;;;;;;;3.45;2.65;;;19.80;99.90;;;;;;5026519;28;20215;-23
2023/08/11 03:25:32;;;;;;;3.22;2.67;;;19.80;99.90;;;;;;5027719;28;20201;-22
2023/08/11 03:27:59;;;;;;;3.70;2.85;;;19.80;99.90;;;;;;5010186;28;20224;-23
2023/08/11 03:30:32;;;;;;;4.03;2.60;;;19.80;99.90;;;;;;5027696;28;20244;-23
2023/08/11 03:33:01;;;;;;;4.50;3.08;;;19.70;99.90;;;;;;5026163;28;20746;-23
2023/08/11 03:35:29;;;;;;;4.32;2.72;;;19.70;99.90;;;;;;5026396;28;20193;-23
2023/08/11 03:37:56;;;;;;;6.25;3.40;;;19.70;99.90;;;;;;5026021;28;20813;-23
2023/08/11 03:40:24;;;;;;;4.65;3.40;;;19.70;99.90;;;;;;5027513;28;20217;-23
2023/08/11 03:42:52;;;;;;;6.05;3.03;;;19.70;99.90;;;;;;5026615;28;20208;-23
2023/08/11 03:45:22;;;;;;;3.33;3.00;;;19.70;99.90;;;;;;5026038;28;20205;-23
2023/08/11 03:47:52;;;;;;;3.97;2.83;;;19.60;99.90;;;;;;5009728;28;20228;-23
2023/08/11 03:50:24;;;;;;;3.80;3.00;;;19.60;99.90;;;;;;5010240;28;20293;-23
2023/08/11 03:52:51;;;;;;;7.32;3.45;;;19.60;99.90;;;;;;5027637;28;20873;-22
2023/08/11 03:55:19;;;;;;;3.50;3.20;;;19.60;99.90;;;;;;5027476;28;20217;-23
2023/08/11 03:57:46;;;;;;;4.20;2.92;;;19.60;99.90;;;;;;5025734;28;20201;-23
2023/08/11 04:00:19;;;;;;;4.70;3.20;;;19.50;99.90;;;;;;5027296;28;20209;-23
2023/08/11 04:02:47;;;;;;;4.00;3.13;;;19.50;99.90;;;;;;5009379;28;20213;-22
2023/08/11 04:05:16;;;;;;;4.63;2.97;;;19.50;99.90;;;;;;5025701;28;20221;-23
2023/08/11 04:07:44;;;;;;;5.32;3.17;;;19.50;99.90;;;;;;5025502;28;20279;-23
2023/08/11 04:10:11;;;;;;;5.38;3.25;;;19.50;99.90;;;;;;5025958;28;20193;-22
2023/08/11 04:12:39;;;;;;;4.82;3.03;;;19.50;99.90;;;;;;5009425;28;20212;-23
2023/08/11 04:15:06;;;;;;;4.72;3.05;;;19.50;99.90;;;;;;5025533;28;20205;-23
2023/08/11 04:17:34;;;;;;;7.00;3.20;;;19.40;99.90;;;;;;5025705;28;20213;-23
2023/08/11 04:20:13;;;;;;;4.40;2.95;;;19.40;99.90;;;;;;5025741;28;20205;-23
2023/08/11 04:22:43;;;;;;;5.97;3.25;;;19.40;99.90;;;;;;5025449;28;20216;-23
2023/08/11 04:25:12;;;;;;;6.63;3.80;;;19.40;99.90;;;;;;5009394;28;20617;-23
2023/08/11 04:27:42;;;;;;;6.38;3.10;;;19.40;99.90;;;;;;5025600;28;20718;-23
2023/08/11 04:30:10;;;;;;;4.95;3.13;;;19.40;99.90;;;;;;5025195;28;20209;-23
2023/08/11 04:32:37;;;;;;;6.43;3.05;;;19.30;99.90;;;;;;5026966;28;20208;-23
2023/08/11 04:35:08;;;;;;;6.63;3.60;;;19.30;99.90;;;;;;5025114;28;20705;-23
2023/08/11 04:37:38;;;;;;;5.38;3.08;;;19.30;99.90;;;;;;5026385;28;20205;-22
2023/08/11 04:40:13;;;;;;;8.32;2.80;;;19.30;99.90;;;;;;5026587;28;20219;-23
2023/08/11 04:42:42;;;;;;;4.97;2.92;;;19.30;99.90;;;;;;5026768;28;20963;-23
2023/08/11 04:45:10;;;;;;;8.52;2.90;;;19.20;99.90;;;;;;5026559;28;20201;-23
2023/08/11 04:47:38;;;;;;;4.50;2.90;;;19.20;99.90;;;;;;5024934;28;20236;-22
2023/08/11 04:50:08;;;;;;;4.88;3.20;;;19.20;99.90;;;;;;5026924;28;20209;-23
2023/08/11 04:52:38;;;;;;;6.10;3.20;;;19.20;99.90;;;;;;5008988;28;20196;-22
2023/08/11 04:55:07;;;;;;;4.65;2.97;;;19.20;99.90;;;;;;5024169;28;20204;-23
2023/08/11 04:57:35;;;;;;;5.28;2.92;;;19.20;99.90;;;;;;5026120;28;20212;-23
2023/08/11 05:00:13;;;;;;;5.43;3.50;;;19.20;99.90;;;;;;5026396;28;20278;-23
2023/08/11 05:02:47;;;;;;;3.83;2.72;;;19.20;99.90;;;;;;5027020;28;20258;-22
2023/08/11 05:05:14;;;;;;;4.45;3.15;;;19.20;99.90;;;;;;5026343;28;20205;-23
2023/08/11 05:07:42;;;;;;;5.55;3.30;;;19.10;99.90;;;;;;5024655;28;20248;-22
2023/08/11 05:10:11;;;;;;;3.75;2.78;;;19.20;99.90;;;;;;5008499;28;20278;-22
2023/08/11 05:12:41;;;;;;;5.13;3.17;;;19.20;99.90;;;;;;5025971;28;20400;-23
2023/08/11 05:15:09;;;;;;;4.68;3.50;;;19.20;99.90;;;;;;5025876;28;20698;-23
2023/08/11 05:17:36;;;;;;;6.45;3.40;;;19.20;99.90;;;;;;5025670;28;20209;-23
2023/08/11 05:20:07;;;;;;;6.35;3.50;;;19.20;99.90;;;;;;5024149;28;20233;-23
2023/08/11 05:22:35;;;;;;;5.78;3.35;;;19.20;99.90;;;;;;5024242;28;20268;-22
2023/08/11 05:25:04;;;;;;;7.78;3.33;;;19.20;99.90;;;;;;5008240;28;20209;-23
2023/08/11 05:27:31;;;;;;;5.57;3.33;;;19.20;99.90;;;;;;5024362;28;20302;-22
2023/08/11 05:30:03;;;;;;;4.47;2.92;;;19.20;99.90;;;;;;5025778;28;20761;-29
2023/08/11 05:32:33;;;;;;;4.70;3.22;;;19.30;99.90;;;;;;5024182;28;20201;-29
2023/08/11 05:35:03;;;;;;;5.47;3.10;;;19.30;99.90;;;;;;5026244;28;20196;-29
2023/08/11 05:37:30;;;;;;;7.50;3.42;;;19.30;99.90;;;;;;5025016;28;20291;-29
2023/08/11 05:39:57;;;;;;;7.68;3.38;;;19.30;99.90;;;;;;5025978;28;20236;-29
2023/08/11 05:42:25;;;;;;;5.47;3.58;;;19.30;99.90;;;;;;5024458;28;20200;-29
2023/08/11 05:44:54;;;;;;;5.45;3.40;;;19.40;99.90;;;;;;5024076;28;20208;-29
2023/08/11 05:47:24;;;;;;;4.90;3.38;;;19.40;99.90;;;;;;5024035;28;20225;-29
2023/08/11 05:49:54;;;;;;;6.90;3.65;;;19.40;99.90;;;;;;5024511;28;20211;-29
2023/08/11 05:52:23;;;;;;;10.07;3.85;;;19.50;99.90;;;;;;5025936;28;20254;-29
2023/08/11 05:54:53;;;;;;;9.68;3.50;;;19.50;99.90;;;;;;5023870;28;20674;-29
2023/08/11 05:57:20;;;;;;;12.10;3.72;;;19.50;99.90;;;;;;5023997;28;20721;-29
2023/08/11 05:59:50;;;;;;;6.32;3.50;;;19.50;99.90;;;;;;5025146;28;20463;-29
2023/08/11 06:02:17;;;;;;;7.90;3.83;;;19.50;99.90;;;;;;5024279;28;20208;-29
2023/08/11 06:04:47;;;;;;;10.43;3.70;;;19.60;99.90;;;;;;5023823;28;20209;-29
2023/08/11 06:07:17;;;;;;;4.07;2.83;;;19.60;99.90;;;;;;5028201;28;20228;-29
2023/08/11 06:09:47;;;;;;;6.28;3.53;;;19.60;99.90;;;;;;5011378;28;20295;-29
2023/08/11 06:12:14;;;;;;;11.57;3.80;;;19.70;99.90;;;;;;5029184;28;20750;-29
2023/08/11 06:14:41;;;;;;;8.85;4.10;;;19.70;99.90;;;;;;5028212;28;20718;-29
2023/08/11 06:17:09;;;;;;;10.35;3.80;;;19.80;99.90;;;;;;5027796;28;20201;-29
2023/08/11 06:19:43;;;;;;;7.88;3.72;;;19.80;99.90;;;;;;5012101;28;20197;-29
2023/08/11 06:22:11;;;;;;;7.85;3.90;;;19.80;99.90;;;;;;5027685;28;20428;-29
2023/08/11 06:24:45;;;;;;;7.85;3.47;;;19.90;99.90;;;;;;5029340;28;20196;-29
2023/08/11 06:27:12;;;;;;;5.95;2.97;;;19.90;99.90;;;;;;5028751;28;20224;-29
2023/08/11 06:29:42;;;;;;;6.75;3.60;;;20.00;99.90;;;;;;5028750;28;20621;-29
2023/08/11 06:32:09;;;;;;;8.93;3.80;;;20.00;99.90;;;;;;5011132;28;20204;-29
2023/08/11 06:34:39;;;;;;;3.47;2.65;;;20.10;99.90;;;;;;5011392;28;20204;-29
2023/08/11 06:37:06;;;;;;;8.93;3.35;;;20.20;99.90;;;;;;5028792;28;20223;-29
2023/08/11 06:39:38;;;;;;;9.07;3.13;;;20.20;99.90;;;;;;5026858;28;20544;-29
2023/08/11 06:42:08;;;;;;;5.10;2.90;;;20.30;99.90;;;;;;5028662;28;20423;-29
2023/08/11 06:44:36;;;;;;;5.97;2.63;;;20.30;99.90;;;;;;5026977;28;20212;-29
2023/08/11 06:47:03;;;;;;;5.63;3.03;;;20.40;99.90;;;;;;5026965;28;20340;-29
2023/08/11 06:49:33;;;;;;;6.50;2.88;;;20.50;99.90;;;;;;5027294;28;20213;-29
2023/08/11 06:52:00;;;;;;;5.57;2.90;;;20.50;99.90;;;;;;5027329;28;20266;-29
2023/08/11 06:54:30;;;;;;;5.75;2.83;;;20.60;99.90;;;;;;5027407;28;20551;-29
2023/08/11 06:56:57;;;;;;;7.95;5.47;;;20.60;99.90;;;;;;5028306;28;20209;-29
2023/08/11 06:59:25;;;;;;;10.95;5.25;;;20.70;99.90;;;;;;5028309;28;20251;-30
2023/08/11 07:01:52;;;;;;;6.32;3.95;;;20.80;99.90;;;;;;5028294;28;20190;-32
2023/08/11 07:04:24;;;;;;;5.07;2.97;;;20.80;99.90;;;;;;5028039;28;20710;-29
2023/08/11 07:06:51;;;;;;;4.57;2.83;;;20.90;99.90;;;;;;5028139;28;20201;-30
2023/08/11 07:09:26;;;;;;;3.88;2.70;;;21.00;99.90;;;;;;5027998;28;20228;-30
2023/08/11 07:11:53;;;;;;;3.67;2.80;;;21.00;99.90;;;;;;5028206;28;20200;-29
2023/08/11 07:14:24;;;;;;;3.17;2.78;;;21.10;99.90;;;;;;5014825;28;20223;-30
2023/08/11 07:16:51;;;;;;;4.47;2.80;;;21.20;99.90;;;;;;5045623;28;20445;-29
2023/08/11 07:19:19;;;;;;;4.90;2.88;;;21.20;99.90;;;;;;5046384;28;20207;-29
2023/08/11 07:21:48;;;;;;;4.15;2.65;;;21.30;99.90;;;;;;5046317;28;20223;-29
2023/08/11 07:24:16;;;;;;;4.53;2.63;;;21.30;99.90;;;;;;5046193;28;20235;-29
2023/08/11 07:26:46;;;;;;;5.35;2.85;;;21.40;99.90;;;;;;5046809;28;20200;-29
2023/08/11 07:29:13;;;;;;;3.35;2.42;;;21.50;99.90;;;;;;5047546;28;20243;-29
2023/08/11 07:31:41;;;;;;;4.65;3.08;;;21.60;99.90;;;;;;5047593;28;20188;-29
2023/08/11 07:34:11;;;;;;;2.42;2.22;;;21.60;99.90;;;;;;5046001;28;20335;-29
2023/08/11 07:36:38;;;;;;;5.53;2.60;;;21.70;99.90;;;;;;5045963;28;20204;-29
2023/08/11 07:39:08;;;;;;;3.80;2.33;;;21.70;99.90;;;;;;5047257;28;20232;-29
2023/08/11 07:41:50;;;;;;;3.25;2.63;;;21.80;99.90;;;;;;5046093;28;20713;-30
2023/08/11 07:44:20;;;;;;;3.78;2.55;;;21.90;99.90;;;;;;5047145;28;20291;-29
2023/08/11 07:46:50;;;;;;;6.20;2.70;;;21.90;99.90;;;;;;5047489;28;20192;-30
2023/08/11 07:49:20;;;;;;;3.20;2.78;;;22.00;99.90;;;;;;5045953;28;20220;-29
2023/08/11 07:51:50;;;;;;;2.75;2.50;;;22.10;99.90;;;;;;5045951;28;20204;-29
2023/08/11 07:54:18;;;;;;;4.50;2.72;;;22.20;99.90;;;;;;5046938;28;20680;-30
2023/08/11 07:56:47;;;;;;;4.07;2.70;;;22.20;99.90;;;;;;5047225;28;20294;-29
2023/08/11 07:59:15;;;;;;;3.33;2.97;;;22.30;99.90;;;;;;5045477;28;20576;-29
2023/08/11 08:01:43;;;;;;;4.65;2.97;;;22.40;99.90;;;;;;5047151;28;20295;-29
2023/08/11 08:04:13;;;;;;;3.90;2.58;;;22.40;99.90;;;;;;5046213;28;20196;-29
2023/08/11 08:06:46;;;;;;;8.10;2.88;;;22.50;99.90;;;;;;5045461;28;20208;-30
2023/08/11 08:09:18;;;;;;;3.92;2.70;;;22.60;99.90;;;;;;5045627;28;20223;-30
2023/08/11 08:11:47;;;;;;;4.90;2.60;;;22.70;99.90;;;;;;5046712;28;20196;-30
2023/08/11 08:14:14;;;;;;;5.43;2.97;;;22.70;99.90;;;;;;5046980;28;20200;-30
2023/08/11 08:16:44;;;;;;;4.85;2.85;;;22.80;99.90;;;;;;5045148;28;20219;-30
2023/08/11 08:19:14;;;;;;;3.80;2.42;;;22.90;99.90;;;;;;5046638;28;20200;-30
2023/08/11 08:21:42;;;;;;;3.33;2.38;;;23.00;99.90;;;;;;5045286;28;20208;-30
2023/08/11 08:24:17;;;;;;;3.80;2.60;;;23.10;99.90;;;;;;5046643;28;20327;-30
2023/08/11 08:26:47;;;;;;;5.18;2.40;;;23.10;99.90;;;;;;5045271;28;20234;-30
2023/08/11 08:29:14;;;;;;;3.15;2.35;;;23.20;99.90;;;;;;5045715;28;20242;-30
2023/08/11 08:31:42;;;;;;;5.90;2.88;;;23.30;99.90;;;;;;5046338;28;20505;-30
2023/08/11 08:34:09;;;;;;;4.63;2.78;;;23.40;99.90;;;;;;5012212;28;20634;-30
2023/08/11 08:36:36;;;;;;;5.63;2.38;;;23.50;99.90;;;;;;5028739;28;20200;-29
2023/08/11 08:39:07;;;;;;;4.82;2.45;;;23.50;99.90;;;;;;5045210;28;20286;-29
2023/08/11 08:41:38;;;;;;;3.13;2.28;;;23.60;99.90;;;;;;5046586;28;20204;-29
2023/08/11 08:44:06;;;;;;;2.40;2.20;;;23.70;99.90;;;;;;5046311;28;20757;-29
2023/08/11 08:46:33;;;;;;;2.78;2.50;;;23.80;99.90;;;;;;5044348;28;20211;-30
2023/08/11 08:49:15;;;;;;;4.30;2.33;;;23.80;99.90;;;;;;5044602;28;20775;-30
2023/08/11 08:51:43;;;;;;;3.53;2.45;;;24.00;99.90;;;;;;5045865;28;20611;-30
2023/08/11 08:54:10;;;;;;;2.40;2.20;;;24.00;99.90;;;;;;5046504;28;20266;-30
2023/08/11 08:56:38;;;;;;;3.38;2.40;;;24.10;99.90;;;;;;5044515;28;20798;-30
2023/08/11 08:59:08;;;;;;;2.97;2.70;;;24.20;99.90;;;;;;5045810;28;20207;-30
2023/08/11 09:01:36;;;;;;;2.50;2.30;;;24.20;99.90;;;;;;5044420;28;20207;-30
2023/08/11 09:04:06;;;;;;;3.08;2.25;;;24.30;99.90;;;;;;5045833;28;20222;-29
2023/08/11 09:06:38;;;;;;;3.15;2.40;;;24.40;99.90;;;;;;5046093;28;20194;-29
2023/08/11 09:09:06;;;;;;;3.10;2.38;;;24.50;99.90;;;;;;5044006;28;20597;-29
2023/08/11 09:11:34;;;;;;;2.17;1.98;;;24.50;99.90;;;;;;5044115;28;20258;-29
2023/08/11 09:14:10;;;;;;;3.05;2.30;;;24.60;99.90;;;;;;5028334;28;20193;-29
2023/08/11 09:16:40;;;;;;;3.03;2.45;;;24.70;99.90;;;;;;5046209;28;20476;-30
2023/08/11 09:19:11;;;;;;;2.50;2.30;;;24.80;99.90;;;;;;5045487;28;20691;-29
2023/08/11 09:21:45;;;;;;;6.38;2.65;;;24.80;99.90;;;;;;5043766;28;20734;-29
2023/08/11 09:24:17;;;;;;;4.28;2.67;;;24.90;99.90;;;;;;5043828;28;20203;-29
2023/08/11 09:26:49;;;;;;;2.88;2.35;;;24.90;99.90;;;;;;5045554;28;20212;-29
2023/08/11 09:29:19;;;;;;;3.17;2.28;;;25.00;99.90;;;;;;5045642;28;20317;-29
2023/08/11 09:31:49;;;;;;;3.03;2.60;;;25.00;99.90;;;;;;5045294;28;20295;-30
2023/08/11 09:34:18;;;;;;;2.55;2.28;;;25.10;99.90;;;;;;5043636;28;20199;-29
2023/08/11 09:36:46;;;;;;;2.60;2.22;;;25.10;99.90;;;;;;5043948;28;20204;-22
2023/08/11 09:39:20;;;;;;;5.10;2.60;;;25.20;99.90;;;;;;5045214;28;20251;-29
2023/08/11 09:41:52;;;;;;;2.90;2.15;;;25.30;99.90;;;;;;5049023;28;20199;-29
2023/08/11 09:44:21;;;;;;;3.45;2.58;;;25.30;99.90;;;;;;5049392;28;20754;-29
2023/08/11 09:46:51;;;;;;;2.97;2.30;;;25.40;99.90;;;;;;5031245;28;20255;-29
2023/08/11 09:49:21;;;;;;;2.50;2.22;;;25.40;99.90;;;;;;5049607;28;20224;-30
2023/08/11 09:51:55;;;;;;;4.07;2.33;;;25.50;99.90;;;;;;5048010;28;20725;-29
2023/08/11 09:54:25;;;;;;;2.72;2.10;;;25.60;99.90;;;;;;5049851;28;20634;-30
2023/08/11 09:56:53;;;;;;;3.05;2.33;;;25.60;99.90;;;;;;5049010;28;20631;-30
2023/08/11 09:59:24;;;;;;;2.75;2.22;;;25.70;99.90;;;;;;5047399;28;20200;-23
2023/08/11 10:02:01;;;;;;;2.28;2.08;;;25.70;99.90;;;;;;5047373;28;20196;-23
2023/08/11 10:04:42;;;;;;;2.92;2.50;;;25.80;99.90;;;;;;5047216;28;20207;-23
2023/08/11 10:07:18;;;;;;;3.33;2.35;;;25.80;99.90;;;;;;5048898;28;20223;-23
2023/08/11 10:09:48;;;;;;;4.10;2.65;;;25.90;99.90;;;;;;5048577;28;20216;-23
2023/08/11 10:12:19;;;;;;;3.25;2.30;;;26.00;99.90;;;;;;5031123;28;20208;-23
2023/08/11 10:14:51;;;;;;;2.80;2.22;;;26.00;99.90;;;;;;5047686;28;20196;-30
2023/08/11 10:17:22;;;;;;;2.75;2.40;;;26.00;99.90;;;;;;5049598;28;20223;-30
2023/08/11 10:19:50;;;;;;;2.55;2.28;;;26.10;99.90;;;;;;5047658;28;20262;-30
2023/08/11 10:22:20;;;;;;;2.85;2.40;;;26.20;99.90;;;;;;5047246;28;20208;-30
2023/08/11 10:24:50;;;;;;;11.18;4.60;;;26.20;99.90;;;;;;5047285;28;20212;-30
2023/08/11 10:27:17;;;;;;;5.20;3.45;;;26.30;99.90;;;;;;5047148;28;20199;-30
2023/08/11 10:29:57;;;;;;;7.30;3.25;;;26.30;99.90;;;;;;5049097;28;20243;-29
2023/08/11 10:32:31;;;;;;;7.03;2.70;;;26.40;99.90;;;;;;5048423;28;20200;-30
2023/08/11 10:34:58;;;;;;;2.83;2.40;;;26.50;99.90;;;;;;5047182;28;20188;-30
2023/08/11 10:37:35;;;;;;;5.00;2.80;;;26.50;99.90;;;;;;5046643;28;20670;-30
2023/08/11 10:40:16;;;;;;;4.03;2.33;;;26.60;99.90;;;;;;5048242;28;20290;-30
2023/08/11 10:42:47;;;;;;;2.95;2.40;;;26.60;99.90;;;;;;5046729;28;20285;-30
2023/08/11 10:45:14;;;;;;;3.15;2.33;;;26.70;99.90;;;;;;5046612;28;20677;-30
2023/08/11 10:48:08;;;;;;;3.63;2.00;;;26.70;99.90;;;;;;5046775;28;20635;-31
2023/08/11 10:50:39;;;;;;;2.60;2.13;;;26.80;99.90;;;;;;5046795;28;20204;-31
2023/08/11 10:53:10;;;;;;;4.97;2.13;;;26.80;99.90;;;;;;5029434;28;20196;-30
2023/08/11 10:55:39;;;;;;;3.17;2.20;;;26.90;99.90;;;;;;5046077;28;20695;-30
2023/08/11 10:58:17;;;;;;;6.00;2.63;;;26.90;99.90;;;;;;5047814;28;20342;-30
2023/08/11 11:00:47;;;;;;;5.95;2.13;;;26.90;99.90;;;;;;5048208;28;20578;-23
2023/08/11 11:03:15;;;;;;;2.70;2.10;;;27.00;99.90;;;;;;5046415;28;20205;-23
2023/08/11 11:05:45;;;;;;;2.97;2.20;;;27.00;99.90;;;;;;5047864;28;20222;-23
2023/08/11 11:08:14;;;;;;;4.53;2.20;;;27.00;99.90;;;;;;5046947;28;20249;-24
2023/08/11 11:10:44;;;;;;;3.67;2.20;;;27.00;99.90;;;;;;5030030;28;20204;-23
2023/08/11 11:13:17;;;;;;;2.95;2.13;;;27.10;99.90;;;;;;5047812;28;20306;-23
2023/08/11 11:15:48;;;;;;;3.55;2.00;;;27.10;99.90;;;;;;5047648;28;20212;-23
2023/08/11 11:18:16;;;;;;;3.10;2.08;;;27.20;99.90;;;;;;5047917;28;20277;-23
2023/08/11 11:20:46;;;;;;;3.58;2.38;;;27.20;99.90;;;;;;5045984;28;20219;-23
2023/08/11 11:23:13;;;;;;;2.80;2.22;;;27.20;99.90;;;;;;5046142;28;20592;-23
2023/08/11 11:25:45;;;;;;;2.65;2.45;;;27.30;99.90;;;;;;5046209;28;20210;-22
2023/08/11 11:28:14;;;;;;;2.70;2.30;;;27.30;99.90;;;;;;5030229;28;20208;-23
2023/08/11 11:30:41;;;;;;;2.67;2.08;;;27.40;99.90;;;;;;5047102;28;20216;-23
2023/08/11 11:33:14;;;;;;;2.50;2.30;;;27.50;99.90;;;;;;5045508;28;20200;-23
2023/08/11 11:35:41;;;;;;;3.67;2.20;;;27.50;99.90;;;;;;5029566;28;20196;-23
2023/08/11 11:38:10;;;;;;;3.80;2.80;;;27.60;99.90;;;;;;5046962;28;20246;-23
2023/08/11 11:40:43;;;;;;;3.55;2.50;;;27.70;99.90;;;;;;5047489;28;20204;-23
2023/08/11 11:43:12;;;;;;;5.28;2.58;;;27.70;99.90;;;;;;5047768;28;20254;-23
2023/08/11 11:45:42;;;;;;;2.50;2.30;;;27.80;99.90;;;;;;5047822;28;20192;-23
2023/08/11 11:48:09;;;;;;;2.75;2.35;;;27.90;99.90;;;;;;5029197;28;20217;-23
2023/08/11 11:50:41;;;;;;;2.90;2.33;;;28.00;99.90;;;;;;5047005;28;20196;-23
2023/08/11 11:53:08;;;;;;;3.42;2.30;;;28.10;99.90;;;;;;5029817;28;20196;-21
2023/08/11 11:55:53;;;;;;;2.83;2.35;;;28.20;99.90;;;;;;5045576;28;20486;-23
2023/08/11 11:58:23;;;;;;;3.75;2.63;;;28.30;99.90;;;;;;5047360;28;20629;-23
2023/08/11 12:00:50;;;;;;;2.55;2.30;;;28.40;99.90;;;;;;5045686;28;20681;-23
2023/08/11 12:03:18;;;;;;;2.45;2.10;;;28.50;99.90;;;;;;5045067;28;20189;-23
2023/08/11 12:05:45;;;;;;;5.35;2.20;;;28.50;99.90;;;;;;5046836;28;20211;-23
2023/08/11 12:08:20;;;;;;;2.88;2.30;;;28.60;99.90;;;;;;5047032;28;20281;-23
2023/08/11 12:10:48;;;;;;;2.47;2.20;;;28.70;99.90;;;;;;5029081;28;20210;-23
2023/08/11 12:13:22;;;;;;;2.88;2.00;;;28.80;99.90;;;;;;5045354;28;20674;-23
2023/08/11 12:15:49;;;;;;;3.20;2.40;;;28.90;99.90;;;;;;5045463;28;20652;-23
2023/08/11 12:18:16;;;;;;;3.35;2.33;;;28.90;99.90;;;;;;5045207;28;20224;-23
2023/08/11 12:20:44;;;;;;;2.53;2.33;;;29.00;99.90;;;;;;5047707;28;20279;-23
2023/08/11 12:23:11;;;;;;;3.33;2.30;;;29.10;99.90;;;;;;5029035;28;20623;-23
2023/08/11 12:25:40;;;;;;;2.35;2.15;;;29.10;99.90;;;;;;5045227;28;20293;-23
2023/08/11 12:28:08;;;;;;;3.90;2.15;;;29.20;99.90;;;;;;5046677;28;20208;-23
2023/08/11 12:30:35;;;;;;;2.97;2.38;;;29.20;99.90;;;;;;5044946;28;20223;-23
2023/08/11 12:33:05;;;;;;;5.90;2.40;;;29.30;99.90;;;;;;5046676;28;20193;-23
2023/08/11 12:35:34;;;;;;;4.55;2.30;;;29.40;99.90;;;;;;5046189;28;20212;-23
2023/08/11 12:38:01;;;;;;;2.80;2.40;;;29.40;99.90;;;;;;5044391;28;20233;-23
2023/08/11 12:40:30;;;;;;;3.20;2.28;;;29.50;99.90;;;;;;5044871;28;20211;-23
2023/08/11 12:42:57;;;;;;;3.72;2.45;;;29.60;99.90;;;;;;5046506;28;20208;-23
2023/08/11 12:45:24;;;;;;;4.50;2.00;;;29.60;99.90;;;;;;5045889;28;20230;-23
2023/08/11 12:47:51;;;;;;;4.25;2.60;;;29.80;99.90;;;;;;5044640;28;20304;-23
2023/08/11 12:50:20;;;;;;;5.63;2.20;;;29.80;99.90;;;;;;5044448;28;20250;-23
2023/08/11 12:52:47;;;;;;;6.70;2.80;;;29.90;99.90;;;;;;5044430;28;20220;-23
2023/08/11 12:55:18;;;;;;;2.42;2.03;;;30.00;99.90;;;;;;5028386;28;20216;-23
2023/08/11 12:57:46;;;;;;;4.60;2.50;;;30.00;99.90;;;;;;5045278;28;20196;-23